< < Back
Terminal Aerodrome Forecast


Current Version              Previous Versions:   1  2  3  4  5  6  7  8  9  

Terminal Aerodrome Forecast

739
FTUS42 KCHS 282300
TAFCHS
TAF
KCHS 282337Z 2900/2924 25010KT P6SM VCTS SCT035CB BKN150
     FM290200 26006KT P6SM SCT080
     FM290900 32005KT P6SM SKC
     FM291600 35005KT P6SM FEW050=

Latest METAR

851
SAUS80 KWBC 291000 RRB
MTRCHS
METAR KCHS 290956Z 02006KT 10SM FEW080 23/17 A2987 RMK AO2 SLP116
T02330167 $


USA.gov is the U.S. government's official web portal to all federal, state and local government web resources and services.